createdAt,value
2022-12-11T00:02:01.401Z,100663.66
2022-12-11T00:04:29.219Z,100660.25
2022-12-11T00:06:58.535Z,100651.66
2022-12-11T00:09:26.425Z,100652.31
2022-12-11T00:11:54.268Z,100651.88
2022-12-11T00:14:22.069Z,100646.53
2022-12-11T00:16:50.179Z,100644.19
2022-12-11T00:19:18.134Z,100648.06
2022-12-11T00:21:45.884Z,100647.59
2022-12-11T00:24:15.265Z,100645.81
2022-12-11T00:26:42.829Z,100643.81
2022-12-11T00:29:14.512Z,100641.84
2022-12-11T00:31:45.804Z,100643.13
2022-12-11T00:34:13.720Z,100644.75
2022-12-11T00:36:41.520Z,100639.38
2022-12-11T00:39:09.324Z,100637.50
2022-12-11T00:41:38.507Z,100636.19
2022-12-11T00:44:06.482Z,100638.06
2022-12-11T00:46:34.265Z,100638.25
2022-12-11T00:49:02.114Z,100639.91
2022-12-11T00:51:30.296Z,100644.00
2022-12-11T00:53:58.056Z,100641.75
2022-12-11T00:56:25.930Z,100637.88
2022-12-11T00:58:55.375Z,100647.03
2022-12-11T01:01:25.225Z,100643.47
2022-12-11T01:03:53.896Z,100644.59
2022-12-11T01:06:25.188Z,100644.41
2022-12-11T01:09:14.346Z,100638.94
2022-12-11T01:11:42.732Z,100643.13
2022-12-11T01:14:13.243Z,100642.06
2022-12-11T01:16:41.065Z,100642.44
2022-12-11T01:19:08.921Z,100649.56
2022-12-11T01:21:36.654Z,100647.69
2022-12-11T01:24:04.886Z,100647.59
2022-12-11T01:26:32.756Z,100648.78
2022-12-11T01:29:01.338Z,100646.34
2022-12-11T01:31:30.636Z,100646.81
2022-12-11T01:33:58.400Z,100644.72
2022-12-11T01:36:26.179Z,100660.78
2022-12-11T01:38:54.508Z,100661.50
2022-12-11T01:41:22.729Z,100660.75
2022-12-11T01:44:02.375Z,100658.47
2022-12-11T01:46:33.756Z,100657.03
2022-12-11T01:49:03.476Z,100653.34
2022-12-11T01:51:34.298Z,100655.75
2022-12-11T01:54:07.437Z,100652.06
2022-12-11T01:56:37.946Z,100650.38
2022-12-11T01:59:09.432Z,100651.38
2022-12-11T02:01:42.385Z,100655.84
2022-12-11T02:04:11.391Z,100652.84
2022-12-11T02:06:41.508Z,100654.19
2022-12-11T02:09:12.086Z,100649.53
2022-12-11T02:11:49.038Z,100646.97
2022-12-11T02:14:27.847Z,100651.63
2022-12-11T02:17:02.073Z,100654.00
2022-12-11T02:19:45.980Z,100657.19
2022-12-11T02:22:20.487Z,100653.78
2022-12-11T02:25:04.617Z,100652.66
2022-12-11T02:27:40.803Z,100656.59
2022-12-11T02:30:12.229Z,100651.50
2022-12-11T02:32:46.784Z,100654.34
2022-12-11T02:35:20.691Z,100647.34
2022-12-11T02:37:52.654Z,100655.66
2022-12-11T02:40:25.952Z,100643.97
2022-12-11T02:42:57.058Z,100647.53
2022-12-11T02:45:28.408Z,100641.34
2022-12-11T02:47:59.685Z,100647.34
2022-12-11T02:50:29.274Z,100647.09
2022-12-11T02:53:00.749Z,100653.19
2022-12-11T02:55:31.076Z,100655.00
2022-12-11T02:58:05.045Z,100649.63
2022-12-11T03:00:34.643Z,100655.31
2022-12-11T03:03:02.909Z,100647.16
2022-12-11T03:05:30.986Z,100645.28
2022-12-11T03:07:59.066Z,100653.50
2022-12-11T03:10:26.896Z,100648.13
2022-12-11T03:12:57.202Z,100651.31
2022-12-11T03:15:33.412Z,100649.53
2022-12-11T03:18:10.118Z,100650.50
2022-12-11T03:20:42.597Z,100645.66
2022-12-11T03:23:18.657Z,100650.75
2022-12-11T03:25:54.564Z,100652.84
2022-12-11T03:28:28.362Z,100647.00
2022-12-11T03:30:58.114Z,100652.19
2022-12-11T03:33:32.520Z,100654.88
2022-12-11T03:36:04.805Z,100657.66
2022-12-11T03:38:37.646Z,100655.09
2022-12-11T03:41:08.873Z,100659.97
2022-12-11T03:43:38.432Z,100651.22
2022-12-11T03:46:09.222Z,100659.63
2022-12-11T03:48:41.802Z,100652.28
2022-12-11T03:51:10.707Z,100651.47
2022-12-11T03:53:39.654Z,100652.25
2022-12-11T03:56:10.141Z,100650.28
2022-12-11T03:58:38.526Z,100655.06
2022-12-11T04:01:10.173Z,100648.84
2022-12-11T04:03:40.027Z,100649.06
2022-12-11T04:06:08.474Z,100652.63
2022-12-11T04:08:36.201Z,100646.97
2022-12-11T04:11:22.727Z,100643.41
2022-12-11T04:14:11.249Z,100644.31
2022-12-11T04:16:38.397Z,100635.84
2022-12-11T04:19:24.944Z,100635.53
2022-12-11T04:22:10.353Z,100637.03
2022-12-11T04:24:38.116Z,100633.66
2022-12-11T04:27:05.890Z,100636.22
2022-12-11T04:29:33.824Z,100636.78
2022-12-11T04:32:01.693Z,100630.94
2022-12-11T04:34:31.304Z,100630.09
2022-12-11T04:36:59.334Z,100620.88
2022-12-11T04:39:27.113Z,100625.50
2022-12-11T04:41:54.919Z,100617.34
2022-12-11T04:44:22.642Z,100619.22
2022-12-11T04:46:50.532Z,100623.59
2022-12-11T04:49:18.319Z,100620.44
2022-12-11T04:51:47.419Z,100632.19
2022-12-11T04:54:15.189Z,100631.41
2022-12-11T04:56:42.938Z,100634.44
2022-12-11T04:59:10.849Z,100627.72
2022-12-11T05:01:38.621Z,100624.16
2022-12-11T05:04:06.840Z,100634.97
2022-12-11T05:06:34.600Z,100622.09
2022-12-11T05:09:04.289Z,100633.41
2022-12-11T05:11:32.086Z,100637.75
2022-12-11T05:13:59.787Z,100629.91
2022-12-11T05:16:27.669Z,100623.59
2022-12-11T05:18:55.791Z,100624.16
2022-12-11T05:21:23.566Z,100616.91
2022-12-11T05:23:51.287Z,100621.22
2022-12-11T05:26:22.219Z,100615.00
2022-12-11T05:28:53.302Z,100617.28
2022-12-11T05:31:23.188Z,100608.50
2022-12-11T05:33:51.703Z,100606.63
2022-12-11T05:36:21.920Z,100607.56
2022-12-11T05:38:50.507Z,100619.34
2022-12-11T05:41:22.051Z,100610.56
2022-12-11T05:43:49.952Z,100618.50
2022-12-11T05:46:20.572Z,100617.56
2022-12-11T05:48:51.072Z,100616.72
2022-12-11T05:51:20.283Z,100620.59
2022-12-11T05:53:50.168Z,100617.00
2022-12-11T05:56:20.211Z,100620.97
2022-12-11T05:58:50.379Z,100614.91
2022-12-11T06:01:20.642Z,100607.75
2022-12-11T06:03:48.569Z,100614.53
2022-12-11T06:06:17.092Z,100611.03
2022-12-11T06:08:44.860Z,100617.00
2022-12-11T06:11:13.941Z,100612.06
2022-12-11T06:13:41.840Z,100611.22
2022-12-11T06:16:11.159Z,100612.63
2022-12-11T06:18:39.129Z,100604.44
2022-12-11T06:21:17.607Z,100611.22
2022-12-11T06:23:46.300Z,100605.28
2022-12-11T06:26:15.659Z,100607.56
2022-12-11T06:28:43.775Z,100605.19
2022-12-11T06:31:13.556Z,100612.44
2022-12-11T06:33:43.705Z,100613.84
2022-12-11T06:36:13.326Z,100611.28
2022-12-11T06:38:41.331Z,100609.69
2022-12-11T06:41:09.684Z,100613.19
2022-12-11T06:43:40.105Z,100610.06
2022-12-11T06:46:10.230Z,100608.47
2022-12-11T06:48:40.170Z,100616.78
2022-12-11T06:51:09.098Z,100618.28
2022-12-11T06:53:37.397Z,100613.28
2022-12-11T06:56:05.872Z,100626.38
2022-12-11T06:58:35.931Z,100627.81
2022-12-11T07:01:04.966Z,100619.19
2022-12-11T07:03:33.501Z,100616.94
2022-12-11T07:06:03.462Z,100625.53
2022-12-11T07:08:32.011Z,100631.31
2022-12-11T07:11:04.424Z,100626.09
2022-12-11T07:13:32.212Z,100635.06
2022-12-11T07:16:00.276Z,100629.94
2022-12-11T07:18:28.267Z,100630.38
2022-12-11T07:20:56.078Z,100620.06
2022-12-11T07:23:25.214Z,100622.50
2022-12-11T07:25:53.708Z,100619.78
2022-12-11T07:28:21.565Z,100617.22
2022-12-11T07:30:49.312Z,100624.28
2022-12-11T07:33:17.204Z,100633.06
2022-12-11T07:35:45.246Z,100631.44
2022-12-11T07:38:13.063Z,100628.03
2022-12-11T07:40:42.140Z,100624.66
2022-12-11T07:43:09.924Z,100629.19
2022-12-11T07:45:37.700Z,100629.41
2022-12-11T07:48:05.868Z,100631.47
2022-12-11T07:50:39.483Z,100633.47
2022-12-11T07:53:07.789Z,100622.59
2022-12-11T07:55:35.561Z,100624.47
2022-12-11T07:58:04.792Z,100627.00
2022-12-11T08:00:32.516Z,100622.13
2022-12-11T08:03:00.253Z,100631.00
2022-12-11T08:05:28.049Z,100624.94
2022-12-11T08:07:55.862Z,100636.59
2022-12-11T08:10:23.646Z,100626.00
2022-12-11T08:12:51.386Z,100628.66
2022-12-11T08:15:20.560Z,100628.88
2022-12-11T08:17:49.729Z,100634.13
2022-12-11T08:20:17.604Z,100635.66
2022-12-11T08:22:45.367Z,100633.13
2022-12-11T08:25:13.500Z,100636.88
2022-12-11T08:27:41.449Z,100640.19
2022-12-11T08:30:10.511Z,100649.06
2022-12-11T08:32:39.636Z,100638.94
2022-12-11T08:35:08.677Z,100638.13
2022-12-11T08:37:36.572Z,100643.81
2022-12-11T08:40:04.762Z,100641.72
2022-12-11T08:42:32.656Z,100643.78
2022-12-11T08:45:00.424Z,100637.53
2022-12-11T08:47:28.549Z,100640.00
2022-12-11T08:49:57.884Z,100653.38
2022-12-11T08:52:25.404Z,100640.56
2022-12-11T08:54:53.108Z,100650.66
2022-12-11T08:57:20.879Z,100652.38
2022-12-11T08:59:48.625Z,100645.84
2022-12-11T09:02:16.403Z,100644.75
2022-12-11T09:04:44.148Z,100640.69
2022-12-11T09:07:13.386Z,100640.03
2022-12-11T09:09:41.161Z,100639.44
2022-12-11T09:12:08.890Z,100640.22
2022-12-11T09:14:36.646Z,100648.69
2022-12-11T09:17:05.395Z,100646.34
2022-12-11T09:19:33.171Z,100652.56
2022-12-11T09:22:01.680Z,100648.78
2022-12-11T09:24:30.824Z,100648.91
2022-12-11T09:26:58.696Z,100649.66
2022-12-11T09:29:26.381Z,100639.47
2022-12-11T09:31:54.216Z,100635.09
2022-12-11T09:34:28.684Z,100635.66
2022-12-11T09:36:57.294Z,100628.19
2022-12-11T09:39:25.311Z,100631.53
2022-12-11T09:42:03.235Z,100629.06
2022-12-11T09:44:39.281Z,100623.59
2022-12-11T09:47:20.197Z,100625.28
2022-12-11T09:49:50.791Z,100632.00
2022-12-11T09:52:21.421Z,100624.94
2022-12-11T09:54:52.112Z,100621.69
2022-12-11T09:57:32.848Z,100625.28
2022-12-11T10:00:11.347Z,100623.66
2022-12-11T10:02:51.946Z,100624.72
2022-12-11T10:05:27.635Z,100619.09
2022-12-11T10:08:07.227Z,100618.13
2022-12-11T10:10:44.399Z,100611.16
2022-12-11T10:13:25.102Z,100609.19
2022-12-11T10:15:59.043Z,100596.25
2022-12-11T10:18:30.955Z,100594.16
2022-12-11T10:21:02.395Z,100599.63
2022-12-11T10:23:35.812Z,100598.84
2022-12-11T10:26:07.964Z,100591.84
2022-12-11T10:28:37.272Z,100590.19
2022-12-11T10:31:14.492Z,100580.72
2022-12-11T10:33:55.140Z,100579.81
2022-12-11T10:36:29.636Z,100575.19
2022-12-11T10:38:57.728Z,100579.81
2022-12-11T10:41:38.012Z,100579.97
2022-12-11T10:44:17.590Z,100572.53
2022-12-11T10:46:45.663Z,100566.53
2022-12-11T10:49:24.386Z,100570.03
2022-12-11T10:51:54.141Z,100569.25
2022-12-11T10:54:31.914Z,100570.66
2022-12-11T10:57:01.496Z,100576.59
2022-12-11T10:59:37.092Z,100568.63
2022-12-11T11:02:06.775Z,100561.69
2022-12-11T11:04:37.249Z,100556.19
2022-12-11T11:07:13.537Z,100554.03
2022-12-11T11:09:41.780Z,100555.84
2022-12-11T11:12:24.308Z,100558.28
2022-12-11T11:15:05.528Z,100559.44
2022-12-11T11:17:36.244Z,100553.41
2022-12-11T11:20:15.699Z,100552.00
2022-12-11T11:22:46.790Z,100546.00
2022-12-11T11:25:20.582Z,100546.66
2022-12-11T11:27:53.422Z,100546.16
2022-12-11T11:30:25.043Z,100546.66
2022-12-11T11:32:56.144Z,100542.94
2022-12-11T11:35:27.031Z,100530.94
2022-12-11T11:38:01.263Z,100532.41
2022-12-11T11:40:31.747Z,100535.97
2022-12-11T11:43:08.991Z,100526.63
2022-12-11T11:45:44.394Z,100523.72
2022-12-11T11:48:23.845Z,100532.31
2022-12-11T11:50:53.845Z,100520.22
2022-12-11T11:53:28.074Z,100527.75
2022-12-11T11:56:04.062Z,100520.00
2022-12-11T11:58:41.028Z,100518.63
2022-12-11T12:01:16.031Z,100515.53
2022-12-11T12:03:44.303Z,100519.25
2022-12-11T12:06:19.107Z,100511.91
2022-12-11T12:08:57.149Z,100515.63
2022-12-11T12:11:33.025Z,100516.16
2022-12-11T12:14:29.090Z,100516.19
2022-12-11T12:17:13.980Z,100509.69
2022-12-11T12:19:53.084Z,100499.88
2022-12-11T12:22:38.761Z,100511.91
2022-12-11T12:25:17.524Z,100518.59
2022-12-11T12:27:53.343Z,100512.16
2022-12-11T12:30:23.649Z,100510.06
2022-12-11T12:33:08.258Z,100508.97
2022-12-11T12:35:38.195Z,100511.13
2022-12-11T12:38:12.862Z,100504.66
2022-12-11T12:40:55.581Z,100506.44
2022-12-11T12:43:42.403Z,100508.13
2022-12-11T12:46:20.037Z,100493.94
2022-12-11T12:48:51.361Z,100496.72
2022-12-11T12:51:20.104Z,100488.34
2022-12-11T12:53:59.195Z,100500.75
2022-12-11T12:56:30.231Z,100492.69
2022-12-11T12:58:57.990Z,100488.66
2022-12-11T13:01:29.557Z,100493.72
2022-12-11T13:04:02.188Z,100498.63
2022-12-11T13:06:33.757Z,100493.13
2022-12-11T13:09:14.793Z,100486.56
2022-12-11T13:11:43.038Z,100483.91
2022-12-11T13:14:27.995Z,100483.66
2022-12-11T13:17:08.884Z,100480.84
2022-12-11T13:19:42.558Z,100485.88
2022-12-11T13:22:23.845Z,100487.25
2022-12-11T13:25:01.682Z,100484.06
2022-12-11T13:27:39.412Z,100482.88
2022-12-11T13:30:21.848Z,100490.75
2022-12-11T13:32:59.876Z,100485.09
2022-12-11T13:35:29.812Z,100484.69
2022-12-11T13:38:04.202Z,100483.00
2022-12-11T13:40:39.434Z,100485.03
2022-12-11T13:43:11.186Z,100486.31
2022-12-11T13:45:45.453Z,100477.19
2022-12-11T13:48:20.973Z,100478.25
2022-12-11T13:50:51.967Z,100482.31
2022-12-11T13:53:21.252Z,100484.97
2022-12-11T13:55:58.245Z,100482.75
2022-12-11T13:58:26.650Z,100484.53
2022-12-11T14:01:03.912Z,100484.00
2022-12-11T14:03:32.526Z,100485.47
2022-12-11T14:06:03.379Z,100481.41
2022-12-11T14:08:36.503Z,100483.47
2022-12-11T14:11:05.483Z,100472.56
2022-12-11T14:13:36.360Z,100477.09
2022-12-11T14:16:05.309Z,100476.13
2022-12-11T14:18:36.417Z,100476.34
2022-12-11T14:21:07.138Z,100480.78
2022-12-11T14:23:36.414Z,100482.53
2022-12-11T14:26:16.408Z,100482.91
2022-12-11T14:28:44.945Z,100476.78
2022-12-11T14:31:17.035Z,100472.09
2022-12-11T14:33:52.821Z,100472.09
2022-12-11T14:36:22.217Z,100470.03
2022-12-11T14:38:52.334Z,100460.31
2022-12-11T14:41:24.990Z,100458.16
2022-12-11T14:43:57.709Z,100461.66
2022-12-11T14:46:32.718Z,100459.56
2022-12-11T14:49:04.601Z,100468.75
2022-12-11T14:51:41.463Z,100461.88
2022-12-11T14:54:20.476Z,100464.63
2022-12-11T14:56:48.584Z,100468.19
2022-12-11T14:59:25.510Z,100472.00
2022-12-11T15:02:00.783Z,100470.78
2022-12-11T15:04:31.344Z,100468.41
2022-12-11T15:07:01.147Z,100467.47
2022-12-11T15:09:37.220Z,100465.00
2022-12-11T15:12:12.448Z,100466.19
2022-12-11T15:14:52.405Z,100465.16
2022-12-11T15:17:21.719Z,100469.31
2022-12-11T15:19:52.077Z,100465.91
2022-12-11T15:22:25.208Z,100471.38
2022-12-11T15:24:55.051Z,100476.06
2022-12-11T15:27:31.414Z,100473.31
2022-12-11T15:29:59.620Z,100476.28
2022-12-11T15:32:27.517Z,100474.88
2022-12-11T15:34:57.270Z,100475.94
2022-12-11T15:37:28.826Z,100467.56
2022-12-11T15:39:58.406Z,100469.81
2022-12-11T15:42:28.722Z,100468.72
2022-12-11T15:44:57.061Z,100470.91
2022-12-11T15:47:26.676Z,100477.28
2022-12-11T15:49:56.128Z,100474.34
2022-12-11T15:52:23.699Z,100468.41
2022-12-11T15:54:53.086Z,100475.47
2022-12-11T15:57:22.163Z,100478.75
2022-12-11T15:59:51.152Z,100479.78
2022-12-11T16:02:19.165Z,100472.13
2022-12-11T16:04:47.138Z,100478.03
2022-12-11T16:07:18.527Z,100479.94
2022-12-11T16:09:46.330Z,100481.81
2022-12-11T16:12:15.922Z,100482.78
2022-12-11T16:14:44.212Z,100478.59
2022-12-11T16:17:13.798Z,100488.31
2022-12-11T16:19:43.083Z,100474.53
2022-12-11T16:22:13.058Z,100479.09
2022-12-11T16:24:40.986Z,100477.50
2022-12-11T16:27:10.484Z,100476.53
2022-12-11T16:29:40.791Z,100479.38
2022-12-11T16:32:09.326Z,100475.13
2022-12-11T16:34:38.512Z,100472.69
2022-12-11T16:37:06.641Z,100481.28
2022-12-11T16:39:34.676Z,100476.84
2022-12-11T16:42:02.516Z,100478.78
2022-12-11T16:44:30.272Z,100474.88
2022-12-11T16:46:59.883Z,100471.38
2022-12-11T16:49:27.777Z,100478.31
2022-12-11T16:51:55.517Z,100479.38
2022-12-11T16:54:23.275Z,100478.31
2022-12-11T16:56:51.328Z,100479.69
2022-12-11T16:59:19.138Z,100476.88
2022-12-11T17:01:46.996Z,100476.78
2022-12-11T17:04:16.207Z,100476.38
2022-12-11T17:06:44.075Z,100476.22
2022-12-11T17:09:11.988Z,100475.63
2022-12-11T17:11:39.827Z,100471.38
2022-12-11T17:14:07.640Z,100468.16
2022-12-11T17:16:35.347Z,100461.03
2022-12-11T17:19:05.272Z,100460.78
2022-12-11T17:21:34.528Z,100456.75
2022-12-11T17:24:02.655Z,100458.84
2022-12-11T17:26:30.593Z,100461.34
2022-12-11T17:28:58.649Z,100467.84
2022-12-11T17:31:26.498Z,100471.06
2022-12-11T17:33:54.923Z,100474.25
2022-12-11T17:36:23.268Z,100465.88
2022-12-11T17:38:52.485Z,100464.97
2022-12-11T17:41:21.827Z,100461.97
2022-12-11T17:43:50.572Z,100454.69
2022-12-11T17:46:19.435Z,100457.94
2022-12-11T17:48:47.667Z,100451.81
2022-12-11T17:51:21.028Z,100455.03
2022-12-11T17:53:57.822Z,100455.59
2022-12-11T17:56:26.769Z,100454.09
2022-12-11T17:58:54.583Z,100452.22
2022-12-11T18:01:28.777Z,100457.31
2022-12-11T18:04:02.976Z,100454.22
2022-12-11T18:06:38.928Z,100459.50
2022-12-11T18:09:13.075Z,100452.59
2022-12-11T18:11:44.683Z,100455.09
2022-12-11T18:14:19.007Z,100455.53
2022-12-11T18:16:50.273Z,100456.78
2022-12-11T18:19:23.364Z,100458.09
2022-12-11T18:22:03.810Z,100454.34
2022-12-11T18:24:46.179Z,100458.75
2022-12-11T18:27:17.567Z,100450.75
2022-12-11T18:29:48.593Z,100457.53
2022-12-11T18:32:20.418Z,100455.56
2022-12-11T18:34:48.302Z,100460.75
2022-12-11T18:37:16.041Z,100459.41
2022-12-11T18:39:45.248Z,100456.78
2022-12-11T18:45:00.834Z,100451.41
2022-12-11T18:47:28.720Z,100452.84
2022-12-11T18:49:56.573Z,100448.22
2022-12-11T18:52:24.417Z,100445.03
2022-12-11T18:54:53.551Z,100452.00
2022-12-11T18:57:21.665Z,100451.72
2022-12-11T18:59:53.010Z,100451.06
2022-12-11T19:02:20.944Z,100451.50
2022-12-11T19:04:48.809Z,100446.72
2022-12-11T19:07:16.527Z,100445.69
2022-12-11T19:09:48.044Z,100444.81
2022-12-11T19:12:19.131Z,100443.69
2022-12-11T19:14:46.958Z,100450.59
2022-12-11T19:17:14.665Z,100441.44
2022-12-11T19:19:43.165Z,100447.38
2022-12-11T19:22:10.979Z,100450.03
2022-12-11T19:24:38.776Z,100450.69
2022-12-11T19:27:13.079Z,100449.06
2022-12-11T19:29:42.857Z,100450.59
2022-12-11T19:32:10.669Z,100448.41
2022-12-11T19:34:39.473Z,100453.69
2022-12-11T19:37:07.357Z,100452.91
2022-12-11T19:39:35.188Z,100454.91
2022-12-11T19:42:02.929Z,100448.97
2022-12-11T19:44:30.795Z,100458.41
2022-12-11T19:46:59.910Z,100453.41
2022-12-11T19:49:27.713Z,100453.91
2022-12-11T19:51:55.582Z,100460.59
2022-12-11T19:54:23.425Z,100449.63
2022-12-11T19:56:51.667Z,100458.97
2022-12-11T19:59:19.676Z,100450.38
2022-12-11T20:01:48.060Z,100455.31
2022-12-11T20:04:18.729Z,100453.31
2022-12-11T20:06:48.286Z,100455.22
2022-12-11T20:09:16.268Z,100453.13
2022-12-11T20:11:45.685Z,100458.78
2022-12-11T20:14:17.774Z,100449.72
2022-12-11T20:17:09.230Z,100453.47
2022-12-11T20:19:35.513Z,100452.81
2022-12-11T20:22:03.479Z,100451.78
2022-12-11T20:24:31.984Z,100456.88
2022-12-11T20:27:00.135Z,100454.25
2022-12-11T20:29:27.999Z,100453.25
2022-12-11T20:31:55.839Z,100447.84
2022-12-11T20:34:23.691Z,100455.38
2022-12-11T20:36:53.030Z,100449.19
2022-12-11T20:39:20.600Z,100453.31
2022-12-11T20:41:48.493Z,100455.91
2022-12-11T20:44:16.337Z,100454.59
2022-12-11T20:46:44.312Z,100463.25
2022-12-11T20:49:13.189Z,100459.22
2022-12-11T20:51:41.929Z,100457.56
2022-12-11T20:54:11.458Z,100461.28
2022-12-11T20:56:39.186Z,100459.75
2022-12-11T20:59:07.078Z,100463.72
2022-12-11T21:01:34.919Z,100463.69
2022-12-11T21:04:03.088Z,100451.41
2022-12-11T21:06:33.378Z,100450.25
2022-12-11T21:09:02.555Z,100459.06
2022-12-11T21:11:31.749Z,100461.59
2022-12-11T21:14:00.781Z,100456.97
2022-12-11T21:16:28.905Z,100459.63
2022-12-11T21:18:57.408Z,100456.88
2022-12-11T21:21:25.849Z,100453.22
2022-12-11T21:23:53.850Z,100448.31
2022-12-11T21:26:21.822Z,100462.47
2022-12-11T21:28:51.132Z,100456.66
2022-12-11T21:31:20.363Z,100457.75
2022-12-11T21:33:48.761Z,100454.16
2022-12-11T21:36:17.586Z,100460.50
2022-12-11T21:38:46.814Z,100460.19
2022-12-11T21:41:16.428Z,100460.66
2022-12-11T21:46:35.038Z,100458.59
2022-12-11T21:49:02.869Z,100450.84
2022-12-11T21:51:37.706Z,100448.63
2022-12-11T21:54:09.111Z,100448.22
2022-12-11T21:56:37.405Z,100443.78
2022-12-11T21:59:05.266Z,100447.38
2022-12-11T22:01:38.188Z,100438.72
2022-12-11T22:04:06.655Z,100438.97
2022-12-11T22:06:35.085Z,100437.50
2022-12-11T22:09:03.192Z,100443.59
2022-12-11T22:11:35.942Z,100442.47
2022-12-11T22:14:04.041Z,100436.63
2022-12-11T22:16:31.957Z,100444.44
2022-12-11T22:19:01.349Z,100440.47
2022-12-11T22:21:29.016Z,100438.97
2022-12-11T22:23:56.818Z,100438.31
2022-12-11T22:26:26.504Z,100431.06
2022-12-11T22:28:54.643Z,100429.84
2022-12-11T22:31:26.690Z,100429.56
2022-12-11T22:33:55.985Z,100431.34
2022-12-11T22:36:26.450Z,100430.91
2022-12-11T22:38:54.507Z,100438.91
2022-12-11T22:41:25.504Z,100438.41
2022-12-11T22:43:54.106Z,100439.63
2022-12-11T22:46:24.059Z,100437.09
2022-12-11T22:48:52.100Z,100449.16
2022-12-11T22:51:20.168Z,100448.09
2022-12-11T22:53:49.349Z,100453.06
2022-12-11T22:56:17.571Z,100447.88
2022-12-11T22:58:45.391Z,100460.03
2022-12-11T23:01:15.559Z,100457.50
2022-12-11T23:03:43.420Z,100454.94
2022-12-11T23:06:13.801Z,100454.28
2022-12-11T23:08:42.748Z,100450.38
2022-12-11T23:11:14.396Z,100453.06
2022-12-11T23:13:42.235Z,100442.38
2022-12-11T23:16:10.847Z,100433.13
2022-12-11T23:18:39.400Z,100426.34
2022-12-11T23:21:08.209Z,100438.72
2022-12-11T23:23:36.276Z,100430.91
2022-12-11T23:26:04.925Z,100438.06
2022-12-11T23:28:34.120Z,100440.78
2022-12-11T23:31:01.994Z,100438.91
2022-12-11T23:33:29.838Z,100442.38
2022-12-11T23:35:58.571Z,100443.53
2022-12-11T23:38:27.238Z,100443.91
2022-12-11T23:40:55.103Z,100453.31
2022-12-11T23:43:23.503Z,100455.00
2022-12-11T23:45:52.665Z,100457.44
2022-12-11T23:48:20.697Z,100461.59
2022-12-11T23:50:48.526Z,100463.84
2022-12-11T23:53:16.659Z,100458.00
2022-12-11T23:55:46.299Z,100457.81
2022-12-11T23:58:14.138Z,100461.94
